Time;durP1;ratioP1;P1;durP2;ratioP2;P2;SDS_P1;SDS_P2;PMS_P1;PMS_P2;Temp;Humidity;BMP_temperature;BMP_pressure;BME280_temperature;BME280_humidity;BME280_pressure;Samples;Min_cycle;Max_cycle;Signal;HPM_P1;HPM_P2
2022/01/06 00:02:18;;;;;;;13.98;3.60;;;2.10;78.90;;;;;;5074362;28;20020;-74
2022/01/06 00:04:43;;;;;;;8.23;3.08;;;2.10;79.00;;;;;;5074076;28;20100;-75
2022/01/06 00:07:09;;;;;;;11.38;2.88;;;2.10;78.50;;;;;;5074223;28;20031;-77
2022/01/06 00:09:34;;;;;;;16.15;3.22;;;2.10;78.40;;;;;;5074174;28;20103;-76
2022/01/06 00:12:00;;;;;;;8.95;3.10;;;2.00;78.60;;;;;;5074179;28;20020;-78
2022/01/06 00:14:51;;;;;;;14.07;4.13;;;2.00;78.70;;;;;;5073990;28;20031;-74
2022/01/06 00:17:25;;;;;;;10.00;2.95;;;2.00;79.00;;;;;;5073275;28;20520;-75
2022/01/06 00:25:32;;;;;;;12.75;4.40;;;2.00;79.10;;;;;;5073885;28;20059;-76
2022/01/06 00:27:58;;;;;;;10.40;2.50;;;1.90;78.90;;;;;;5073959;28;20052;-76
2022/01/06 00:30:24;;;;;;;6.80;2.35;;;1.70;79.60;;;;;;5073727;28;20039;-75
2022/01/06 00:32:50;;;;;;;8.35;2.58;;;1.70;79.60;;;;;;5073837;28;20033;-74
2022/01/06 00:35:16;;;;;;;7.40;2.33;;;1.70;79.20;;;;;;5055680;28;20048;-75
2022/01/06 00:37:41;;;;;;;10.13;2.17;;;1.70;79.40;;;;;;5073521;28;20122;-75
2022/01/06 00:40:07;;;;;;;8.77;2.80;;;1.70;80.00;;;;;;5073641;28;20082;-75
2022/01/06 00:42:33;;;;;;;9.70;3.15;;;1.70;79.70;;;;;;5073777;28;20021;-75
2022/01/06 00:44:58;;;;;;;7.70;2.42;;;1.60;80.00;;;;;;5073734;28;20602;-75
2022/01/06 00:47:24;;;;;;;10.23;3.10;;;1.50;79.70;;;;;;5073724;28;20029;-75
2022/01/06 00:49:49;;;;;;;12.18;3.20;;;1.50;80.10;;;;;;5073481;28;20481;-73
2022/01/06 00:52:15;;;;;;;11.00;2.70;;;1.60;80.50;;;;;;5055613;28;20035;-76
2022/01/06 00:54:41;;;;;;;10.63;2.47;;;1.60;80.40;;;;;;5073330;28;20025;-75
2022/01/06 00:57:06;;;;;;;10.68;2.78;;;1.70;80.30;;;;;;5073416;28;20025;-74
2022/01/06 00:59:32;;;;;;;14.73;2.97;;;1.70;79.70;;;;;;5073463;28;20369;-73
2022/01/06 01:01:58;;;;;;;8.57;2.58;;;1.80;79.30;;;;;;5073314;28;20043;-74
2022/01/06 01:04:23;;;;;;;10.80;2.65;;;1.80;78.40;;;;;;5073224;28;20033;-75
2022/01/06 01:06:49;;;;;;;12.77;3.55;;;1.80;79.20;;;;;;5073236;28;20461;-75
2022/01/06 01:09:14;;;;;;;8.85;2.90;;;1.80;78.50;;;;;;5073107;28;20435;-77
2022/01/06 01:11:40;;;;;;;14.30;3.60;;;1.60;79.40;;;;;;5073191;28;20052;-75
2022/01/06 01:14:57;;;;;;;12.70;3.35;;;1.60;80.00;;;;;;5055108;28;20535;-77
2022/01/06 01:16:58;;;;;;;7.80;2.50;;;1.60;79.40;;;;;;5067442;28;20070;-76
2022/01/06 01:19:25;;;;;;;12.65;3.00;;;1.70;79.00;;;;;;5072968;28;20116;-74
2022/01/06 01:21:51;;;;;;;11.07;2.95;;;1.70;79.60;;;;;;5072914;28;20424;-74
2022/01/06 01:24:17;;;;;;;11.50;3.15;;;1.60;79.50;;;;;;5072950;28;20032;-74
2022/01/06 01:26:43;;;;;;;13.32;3.03;;;1.70;79.70;;;;;;5072897;28;20028;-77
2022/01/06 01:29:13;;;;;;;10.05;2.78;;;1.60;79.60;;;;;;5072907;28;20024;-76
2022/01/06 01:31:44;;;;;;;11.65;2.90;;;1.60;79.70;;;;;;5072387;28;20033;-77
2022/01/06 01:34:10;;;;;;;10.90;2.80;;;1.70;80.10;;;;;;5072751;28;20426;-76
2022/01/06 01:36:36;;;;;;;12.05;3.05;;;1.70;80.30;;;;;;5054847;28;20400;-77
2022/01/06 01:39:03;;;;;;;12.13;3.20;;;1.80;80.10;;;;;;5072826;28;20029;-77
2022/01/06 01:41:29;;;;;;;7.97;2.67;;;1.80;79.90;;;;;;5072779;28;20027;-76
2022/01/06 01:43:55;;;;;;;9.10;2.97;;;1.80;80.10;;;;;;5072717;28;20025;-77
2022/01/06 01:46:28;;;;;;;7.57;2.55;;;1.90;80.40;;;;;;5072778;28;20024;-78
2022/01/06 01:49:29;;;;;;;10.13;3.03;;;1.90;80.30;;;;;;5072808;28;20028;-76
2022/01/06 01:51:41;;;;;;;7.78;2.55;;;2.00;80.40;;;;;;5071944;28;20468;-77
2022/01/06 01:54:06;;;;;;;14.90;3.15;;;2.00;79.80;;;;;;5072723;28;20099;-77
2022/01/06 01:56:32;;;;;;;11.70;3.67;;;2.00;79.90;;;;;;5072625;28;20108;-77
2022/01/06 01:58:58;;;;;;;12.05;3.97;;;2.10;80.30;;;;;;5072501;28;20036;-77
2022/01/06 02:01:23;;;;;;;15.38;3.90;;;2.10;80.50;;;;;;5072628;28;20025;-76
2022/01/06 02:03:49;;;;;;;11.52;4.38;;;2.10;80.50;;;;;;5072722;28;20032;-76
2022/01/06 02:06:15;;;;;;;13.70;5.35;;;2.10;80.70;;;;;;5072537;28;20108;-76
2022/01/06 02:08:41;;;;;;;12.27;4.47;;;2.10;80.20;;;;;;5072560;28;20059;-77
2022/01/06 02:11:06;;;;;;;12.30;3.47;;;2.10;80.10;;;;;;5072509;28;20086;-76
2022/01/06 02:13:32;;;;;;;12.63;3.08;;;2.20;79.70;;;;;;5072767;28;20066;-78
2022/01/06 02:16:00;;;;;;;8.02;4.05;;;2.20;79.30;;;;;;5072913;28;20029;-77
2022/01/06 02:18:27;;;;;;;18.63;2.92;;;2.20;79.10;;;;;;5072611;28;20392;-79
2022/01/06 02:20:53;;;;;;;11.40;2.97;;;2.10;79.20;;;;;;5072514;28;20107;-78
2022/01/06 02:23:21;;;;;;;13.95;2.70;;;2.10;79.70;;;;;;5072449;28;20032;-76
2022/01/06 02:25:48;;;;;;;9.27;3.15;;;2.10;79.70;;;;;;5072431;28;20021;-78
2022/01/06 02:28:19;;;;;;;12.05;3.28;;;2.10;79.70;;;;;;5072469;28;20024;-77
2022/01/06 02:30:51;;;;;;;6.82;2.05;;;2.20;79.60;;;;;;5072443;28;20111;-75
2022/01/06 02:33:17;;;;;;;11.68;3.30;;;2.20;79.60;;;;;;5072407;28;20024;-77
2022/01/06 02:35:43;;;;;;;11.18;3.00;;;2.20;79.50;;;;;;5072089;28;20544;-75
2022/01/06 02:38:10;;;;;;;10.32;3.53;;;2.10;79.60;;;;;;5087838;28;20080;-73
2022/01/06 02:40:36;;;;;;;11.13;2.63;;;2.10;79.40;;;;;;5072913;28;20092;-76
2022/01/06 02:43:05;;;;;;;7.53;2.55;;;2.10;79.40;;;;;;5075975;28;20028;-75
2022/01/06 02:45:31;;;;;;;13.77;2.75;;;2.20;79.50;;;;;;5075578;28;20025;-75
2022/01/06 02:47:57;;;;;;;6.22;2.40;;;2.20;79.60;;;;;;5075714;28;20025;-77
2022/01/06 02:50:24;;;;;;;7.80;3.05;;;2.20;79.60;;;;;;5075749;28;20025;-76
2022/01/06 02:52:50;;;;;;;10.20;2.75;;;2.20;79.10;;;;;;5075435;28;20024;-76
2022/01/06 02:55:16;;;;;;;17.10;2.92;;;2.10;79.90;;;;;;5075678;28;20029;-76
2022/01/06 02:57:43;;;;;;;7.75;3.20;;;2.10;80.80;;;;;;5075481;28;20055;-76
2022/01/06 03:00:12;;;;;;;7.35;2.53;;;2.10;80.10;;;;;;5075496;28;20175;-75
2022/01/06 03:02:41;;;;;;;6.30;2.92;;;2.10;80.20;;;;;;5075436;28;20025;-76
2022/01/06 03:05:07;;;;;;;8.32;3.38;;;2.10;80.30;;;;;;5075437;28;20024;-75
2022/01/06 03:07:32;;;;;;;15.18;3.30;;;2.20;79.70;;;;;;5075339;28;20040;-77
2022/01/06 03:09:59;;;;;;;6.10;2.63;;;2.20;79.50;;;;;;5075405;28;20073;-75
2022/01/06 03:12:39;;;;;;;5.43;2.45;;;2.20;80.70;;;;;;5075337;28;20107;-77
2022/01/06 03:15:09;;;;;;;7.22;2.92;;;2.20;79.60;;;;;;5075223;28;20540;-75
2022/01/06 03:17:36;;;;;;;7.85;2.75;;;2.20;79.50;;;;;;5075081;28;20032;-76
2022/01/06 03:20:04;;;;;;;6.95;2.75;;;2.20;79.70;;;;;;5075244;28;20051;-76
2022/01/06 03:22:29;;;;;;;10.20;2.97;;;2.20;79.80;;;;;;5075048;28;20033;-77
2022/01/06 03:24:55;;;;;;;8.77;3.00;;;2.20;79.90;;;;;;5075167;28;20113;-73
2022/01/06 03:27:20;;;;;;;11.85;2.95;;;2.10;80.00;;;;;;5074968;28;20027;-77
2022/01/06 03:29:47;;;;;;;10.52;3.20;;;2.00;80.10;;;;;;5075023;28;20030;-76
2022/01/06 03:32:13;;;;;;;11.85;2.92;;;2.00;80.70;;;;;;5074902;28;20025;-73
2022/01/06 03:34:38;;;;;;;13.43;4.25;;;2.00;80.60;;;;;;5074878;28;20071;-75
2022/01/06 03:37:06;;;;;;;8.75;2.45;;;2.10;80.70;;;;;;5074770;28;20020;-74
2022/01/06 03:39:31;;;;;;;10.13;2.83;;;2.10;81.00;;;;;;5074660;28;20111;-75
2022/01/06 03:41:58;;;;;;;16.10;2.58;;;2.10;81.10;;;;;;5074707;28;20056;-76
2022/01/06 03:44:24;;;;;;;12.13;3.25;;;2.20;81.00;;;;;;5074512;28;20028;-73
2022/01/06 03:46:50;;;;;;;10.23;2.55;;;2.30;81.10;;;;;;5090169;28;20027;-75
2022/01/06 03:49:15;;;;;;;5.57;2.33;;;2.30;80.80;;;;;;5074602;28;20481;-75
2022/01/06 03:51:41;;;;;;;5.25;2.45;;;2.30;80.40;;;;;;5073783;28;20052;-74
2022/01/06 03:54:06;;;;;;;8.27;3.65;;;2.30;80.40;;;;;;5073876;28;20024;-76
2022/01/06 03:56:32;;;;;;;6.82;2.38;;;2.30;80.50;;;;;;5074323;28;20385;-76
2022/01/06 03:58:58;;;;;;;7.63;2.10;;;2.30;80.10;;;;;;5074227;28;20069;-76
2022/01/06 04:01:24;;;;;;;7.32;1.95;;;2.30;80.70;;;;;;5074149;28;20059;-76
2022/01/06 04:03:50;;;;;;;9.68;1.85;;;2.30;79.60;;;;;;5056220;28;20028;-75
2022/01/06 04:06:16;;;;;;;5.15;2.08;;;2.20;80.00;;;;;;5074115;28;20031;-76
2022/01/06 04:08:41;;;;;;;5.63;2.17;;;2.10;80.20;;;;;;5074121;28;20029;-76
2022/01/06 04:11:07;;;;;;;10.77;2.35;;;2.20;79.90;;;;;;5074114;28;20092;-77
2022/01/06 04:13:34;;;;;;;12.25;3.20;;;2.20;80.20;;;;;;5073946;28;20028;-76
2022/01/06 04:16:02;;;;;;;5.22;1.75;;;2.10;80.40;;;;;;5073930;28;20024;-77
2022/01/06 04:18:28;;;;;;;5.43;2.13;;;2.10;80.10;;;;;;5073631;28;20039;-77
2022/01/06 04:20:54;;;;;;;5.40;2.00;;;2.20;80.00;;;;;;5073684;28;20024;-77
2022/01/06 04:23:20;;;;;;;4.63;1.92;;;2.10;80.30;;;;;;5073680;28;20025;-75
2022/01/06 04:25:45;;;;;;;6.95;2.25;;;2.20;80.40;;;;;;5073641;28;20032;-77
2022/01/06 04:28:11;;;;;;;6.88;2.00;;;2.20;80.10;;;;;;5073548;28;20029;-75
2022/01/06 04:30:36;;;;;;;3.75;1.77;;;2.30;80.50;;;;;;5073511;28;20112;-76
2022/01/06 04:33:02;;;;;;;4.68;2.03;;;2.30;80.40;;;;;;5073570;28;20098;-76
2022/01/06 04:35:28;;;;;;;4.70;1.63;;;2.30;80.10;;;;;;5073350;28;20045;-75
2022/01/06 04:37:53;;;;;;;7.63;2.45;;;2.30;79.90;;;;;;5073474;28;20538;-76
2022/01/06 04:40:19;;;;;;;1.88;1.13;;;2.30;80.40;;;;;;5073509;28;20025;-74
2022/01/06 04:42:44;;;;;;;3.55;1.40;;;2.30;80.00;;;;;;5073447;28;20029;-77
2022/01/06 04:45:10;;;;;;;2.60;1.40;;;2.30;79.80;;;;;;5073427;28;20476;-77
2022/01/06 04:47:36;;;;;;;5.35;2.00;;;2.20;79.60;;;;;;5073265;28;20497;-77
2022/01/06 04:50:02;;;;;;;2.28;1.02;;;2.30;79.80;;;;;;5073459;28;20033;-77
2022/01/06 04:52:27;;;;;;;3.75;1.77;;;2.20;79.50;;;;;;5073280;28;20071;-77
2022/01/06 04:54:53;;;;;;;3.97;1.70;;;2.20;79.50;;;;;;5073268;28;20428;-76
2022/01/06 04:57:18;;;;;;;2.92;1.45;;;2.20;80.00;;;;;;5073129;28;20099;-76
2022/01/06 04:59:44;;;;;;;4.40;1.77;;;2.10;80.50;;;;;;5073234;28;20112;-77
2022/01/06 05:02:10;;;;;;;4.35;2.35;;;2.20;80.80;;;;;;5073172;28;20393;-78
2022/01/06 05:04:35;;;;;;;5.93;2.22;;;2.20;81.00;;;;;;5072731;28;20024;-77
2022/01/06 05:07:01;;;;;;;7.75;2.40;;;2.20;81.70;;;;;;5088606;28;20090;-77
2022/01/06 05:09:26;;;;;;;5.35;1.80;;;2.30;81.80;;;;;;5073069;28;20035;-77
2022/01/06 05:11:52;;;;;;;3.13;1.73;;;2.20;81.70;;;;;;5073091;28;20028;-76
2022/01/06 05:14:18;;;;;;;2.88;1.67;;;2.10;82.60;;;;;;5073019;28;20056;-77
2022/01/06 05:16:43;;;;;;;5.72;1.95;;;2.10;82.80;;;;;;5072888;28;20032;-77
2022/01/06 05:19:09;;;;;;;5.95;2.15;;;2.10;83.90;;;;;;5072976;28;20036;-77
2022/01/06 05:21:34;;;;;;;3.90;1.85;;;2.10;84.20;;;;;;5072597;28;20062;-74
2022/01/06 05:24:01;;;;;;;9.60;2.03;;;2.20;84.20;;;;;;5072781;28;20020;-76
2022/01/06 05:26:27;;;;;;;5.53;2.05;;;2.20;84.70;;;;;;5072821;28;20024;-74
2022/01/06 05:28:52;;;;;;;8.90;2.50;;;2.20;84.20;;;;;;5072945;28;20031;-74
2022/01/06 05:31:18;;;;;;;6.30;2.00;;;2.20;84.50;;;;;;5072846;28;20021;-76
2022/01/06 05:33:43;;;;;;;8.88;2.20;;;2.30;84.80;;;;;;5072930;28;20032;-75
2022/01/06 05:36:09;;;;;;;4.90;1.80;;;2.20;84.80;;;;;;5072718;28;20098;-73
2022/01/06 05:38:34;;;;;;;6.45;2.10;;;2.30;84.90;;;;;;5072665;28;20047;-74
2022/01/06 05:41:00;;;;;;;5.95;1.80;;;2.30;85.00;;;;;;5072824;28;20028;-76
2022/01/06 05:43:26;;;;;;;6.57;1.77;;;2.30;85.00;;;;;;5072794;28;20392;-76
2022/01/06 05:45:55;;;;;;;5.28;1.83;;;2.30;85.10;;;;;;5072687;28;20021;-75
2022/01/06 05:48:22;;;;;;;6.47;2.13;;;2.30;85.20;;;;;;5072677;28;20020;-75
2022/01/06 05:50:48;;;;;;;5.38;2.53;;;2.30;85.10;;;;;;5072676;28;20389;-73
2022/01/06 05:53:18;;;;;;;4.80;2.15;;;2.30;85.10;;;;;;5072688;28;20107;-75
2022/01/06 05:55:44;;;;;;;5.63;2.00;;;2.20;85.90;;;;;;5072585;28;20081;-73
2022/01/06 05:58:10;;;;;;;5.18;2.47;;;2.30;85.20;;;;;;5072604;28;20435;-75
2022/01/06 06:00:36;;;;;;;9.50;2.78;;;2.30;85.20;;;;;;5072669;28;20028;-73
2022/01/06 06:03:01;;;;;;;6.30;2.13;;;2.30;85.30;;;;;;5072543;28;20078;-74
2022/01/06 06:05:27;;;;;;;4.70;2.42;;;2.40;85.30;;;;;;5054415;28;20112;-76
2022/01/06 06:07:53;;;;;;;6.68;3.00;;;2.40;85.20;;;;;;5072548;28;20155;-76
2022/01/06 06:10:18;;;;;;;4.68;2.33;;;2.40;85.20;;;;;;5072532;28;20523;-74
2022/01/06 06:12:44;;;;;;;4.60;2.38;;;2.50;85.10;;;;;;5072336;28;20031;-76
2022/01/06 06:15:10;;;;;;;6.80;2.88;;;2.50;84.90;;;;;;5072539;28;20032;-77
2022/01/06 06:17:35;;;;;;;4.28;2.40;;;2.50;84.90;;;;;;5076191;28;20029;-76
2022/01/06 06:20:02;;;;;;;4.85;2.38;;;2.50;84.70;;;;;;5076234;28;20036;-76
2022/01/06 06:22:27;;;;;;;4.88;2.25;;;2.50;84.50;;;;;;5076031;28;20032;-76
2022/01/06 06:24:53;;;;;;;5.03;2.45;;;2.50;84.10;;;;;;5076281;28;20029;-77
2022/01/06 06:27:18;;;;;;;4.55;2.22;;;2.60;83.90;;;;;;5076160;28;20017;-76
2022/01/06 06:29:44;;;;;;;7.05;2.35;;;2.60;83.90;;;;;;5075985;28;20063;-77
2022/01/06 06:32:09;;;;;;;9.07;2.88;;;2.60;83.90;;;;;;5076090;28;20047;-77
2022/01/06 06:34:35;;;;;;;8.50;3.55;;;2.60;83.70;;;;;;5072064;28;20489;-75
2022/01/06 06:37:01;;;;;;;8.07;3.00;;;2.60;83.40;;;;;;5056076;28;20021;-75
2022/01/06 06:39:26;;;;;;;7.82;3.42;;;2.60;82.90;;;;;;5037966;28;20493;-76
2022/01/06 06:41:52;;;;;;;7.55;3.13;;;2.50;82.20;;;;;;5056159;28;20158;-73
2022/01/06 06:44:18;;;;;;;6.55;3.00;;;2.50;82.50;;;;;;5055853;28;20021;-77
2022/01/06 06:46:43;;;;;;;7.43;3.25;;;2.60;82.50;;;;;;5055817;28;20028;-75
2022/01/06 06:49:09;;;;;;;8.73;2.90;;;2.60;82.40;;;;;;5055809;28;20029;-75
2022/01/06 06:51:35;;;;;;;5.90;3.17;;;2.60;82.40;;;;;;5055877;28;20035;-75
2022/01/06 06:54:01;;;;;;;4.97;2.88;;;2.60;82.30;;;;;;5055827;28;20027;-75
2022/01/06 06:56:26;;;;;;;7.75;2.63;;;2.60;82.20;;;;;;5055749;28;20437;-75
2022/01/06 06:58:52;;;;;;;6.47;2.58;;;2.70;82.10;;;;;;5055667;28;20041;-77
2022/01/06 07:01:17;;;;;;;5.45;2.38;;;2.70;81.70;;;;;;5056965;28;20052;-76
2022/01/06 07:03:43;;;;;;;5.72;2.45;;;2.60;81.50;;;;;;5075565;28;20073;-78
2022/01/06 07:06:08;;;;;;;6.95;2.47;;;2.60;81.30;;;;;;5078087;28;20006;-74
2022/01/06 07:08:34;;;;;;;3.67;1.92;;;2.60;81.30;;;;;;5078644;28;20088;-73
2022/01/06 07:11:00;;;;;;;3.50;1.98;;;2.60;80.80;;;;;;5079599;28;20043;-76
2022/01/06 07:13:25;;;;;;;3.17;2.00;;;2.60;80.50;;;;;;5063131;28;20037;-77
2022/01/06 07:15:51;;;;;;;4.90;1.80;;;2.60;80.60;;;;;;5062498;28;20025;-74
2022/01/06 07:18:16;;;;;;;5.07;2.28;;;2.60;80.60;;;;;;5065275;28;20036;-76
2022/01/06 07:20:42;;;;;;;3.38;1.80;;;2.60;80.40;;;;;;5056431;28;20385;-75
2022/01/06 07:23:08;;;;;;;5.18;1.83;;;2.60;80.70;;;;;;5056726;28;20028;-76
2022/01/06 07:25:34;;;;;;;5.95;1.73;;;2.60;80.30;;;;;;5057065;28;20104;-75
2022/01/06 07:27:59;;;;;;;5.90;2.08;;;2.60;80.50;;;;;;5056696;28;20048;-76
2022/01/06 07:30:25;;;;;;;4.95;2.53;;;2.50;80.20;;;;;;5038505;28;20549;-74
2022/01/06 07:32:52;;;;;;;6.47;2.72;;;2.50;80.50;;;;;;5055449;28;20047;-76
2022/01/06 07:35:21;;;;;;;5.22;2.40;;;2.50;80.80;;;;;;5065323;28;20124;-76
2022/01/06 07:37:48;;;;;;;4.88;2.17;;;2.50;80.80;;;;;;5075094;28;20028;-77
2022/01/06 07:40:13;;;;;;;5.00;2.33;;;2.50;80.90;;;;;;5074880;28;20039;-76
2022/01/06 07:42:39;;;;;;;3.97;2.20;;;2.60;81.00;;;;;;5074786;28;20485;-76
2022/01/06 07:45:06;;;;;;;3.35;2.00;;;2.60;81.10;;;;;;5074984;28;20021;-76
2022/01/06 07:47:35;;;;;;;4.35;2.22;;;2.60;81.40;;;;;;5074625;28;20028;-77
2022/01/06 07:50:00;;;;;;;3.50;2.13;;;2.60;81.60;;;;;;5074506;28;20417;-75
2022/01/06 07:52:26;;;;;;;4.35;2.30;;;2.60;82.20;;;;;;5074650;28;20139;-76
2022/01/06 07:54:51;;;;;;;4.53;2.17;;;2.60;82.20;;;;;;5074808;28;20043;-76
2022/01/06 07:57:17;;;;;;;4.22;2.47;;;2.60;82.10;;;;;;5074435;28;20027;-74
2022/01/06 07:59:43;;;;;;;6.25;2.50;;;2.50;82.40;;;;;;5074581;28;20037;-75
2022/01/06 08:02:08;;;;;;;6.13;2.17;;;2.50;82.60;;;;;;5074246;28;20020;-76
2022/01/06 08:04:35;;;;;;;4.22;2.45;;;2.60;82.50;;;;;;5074191;28;20039;-74
2022/01/06 08:07:01;;;;;;;4.40;2.70;;;2.60;82.20;;;;;;5074136;28;20035;-74
2022/01/06 08:09:27;;;;;;;7.90;3.15;;;2.60;82.30;;;;;;5074050;28;20012;-73
2022/01/06 08:11:52;;;;;;;8.05;3.00;;;2.70;82.40;;;;;;5074066;28;20058;-73
2022/01/06 08:14:18;;;;;;;5.53;3.20;;;2.70;82.30;;;;;;5073804;28;20024;-73
2022/01/06 08:16:44;;;;;;;6.13;3.25;;;2.70;82.40;;;;;;5073792;28;20036;-73
2022/01/06 08:19:10;;;;;;;5.38;3.13;;;2.70;82.50;;;;;;5073953;28;20488;-75
2022/01/06 08:21:36;;;;;;;4.95;3.30;;;2.70;82.70;;;;;;5074163;28;20471;-77
2022/01/06 08:24:02;;;;;;;6.57;3.50;;;2.70;82.60;;;;;;5074205;28;20472;-75
2022/01/06 08:26:28;;;;;;;4.57;2.33;;;2.80;83.40;;;;;;5073823;28;20020;-74
2022/01/06 08:28:53;;;;;;;3.95;2.22;;;2.80;82.10;;;;;;5073732;28;20107;-76
2022/01/06 08:31:19;;;;;;;4.65;2.35;;;2.80;81.70;;;;;;5073547;28;20028;-76
2022/01/06 08:33:45;;;;;;;2.90;1.95;;;2.70;82.00;;;;;;5073543;28;20024;-76
2022/01/06 08:36:11;;;;;;;3.00;1.98;;;2.70;82.50;;;;;;5073509;28;20049;-82
2022/01/06 08:38:37;;;;;;;6.72;1.90;;;2.70;82.80;;;;;;5073010;28;20044;-82
2022/01/06 08:41:03;;;;;;;2.67;1.83;;;2.80;83.10;;;;;;5073499;28;20027;-79
2022/01/06 08:43:28;;;;;;;3.22;1.77;;;2.90;83.00;;;;;;5074013;28;20421;-81
2022/01/06 08:45:56;;;;;;;3.45;2.13;;;3.00;82.30;;;;;;5073488;28;20090;-81
2022/01/06 08:48:22;;;;;;;6.13;2.97;;;3.10;82.60;;;;;;5073177;28;20027;-73
2022/01/06 08:50:48;;;;;;;7.82;3.58;;;3.20;82.10;;;;;;5073252;28;20031;-72
2022/01/06 08:53:13;;;;;;;5.70;2.70;;;3.40;81.70;;;;;;5073184;28;20103;-77
2022/01/06 08:55:39;;;;;;;5.32;2.22;;;3.40;81.20;;;;;;5055173;28;20107;-74
2022/01/06 08:58:05;;;;;;;31.48;5.43;;;3.40;80.30;;;;;;5073312;28;20218;-74
2022/01/06 09:00:31;;;;;;;14.35;5.95;;;3.60;83.20;;;;;;5073171;28;20060;-75
2022/01/06 09:02:57;;;;;;;16.73;7.57;;;3.80;84.70;;;;;;5055658;28;20025;-86
2022/01/06 09:05:23;;;;;;;15.95;6.82;;;4.10;82.50;;;;;;5073583;28;20108;-84
2022/01/06 09:07:49;;;;;;;18.02;5.88;;;4.40;81.70;;;;;;5073945;28;20060;-80
2022/01/06 09:10:15;;;;;;;7.68;3.78;;;4.70;81.10;;;;;;5074984;28;20103;-91
2022/01/06 09:12:42;;;;;;;8.48;3.80;;;5.00;79.30;;;;;;5074037;28;20035;-75
2022/01/06 09:15:08;;;;;;;4.22;2.60;;;5.20;79.70;;;;;;5074226;28;20055;-80
2022/01/06 09:17:36;;;;;;;8.07;3.65;;;5.40;78.90;;;;;;5074081;28;20025;-80
2022/01/06 09:20:04;;;;;;;6.68;3.00;;;5.70;76.40;;;;;;5073393;28;20024;-74
2022/01/06 09:22:30;;;;;;;11.23;5.43;;;5.90;75.00;;;;;;5073041;28;20500;-75
2022/01/06 09:24:55;;;;;;;6.85;3.53;;;6.20;73.40;;;;;;5073658;28;20021;-81
2022/01/06 09:27:21;;;;;;;5.78;2.90;;;6.10;72.20;;;;;;5073797;28;20024;-79
2022/01/06 09:29:46;;;;;;;6.47;2.92;;;6.00;71.50;;;;;;5074779;28;20017;-75
2022/01/06 09:32:12;;;;;;;7.22;2.17;;;5.80;71.20;;;;;;5073813;28;20055;-74
2022/01/06 09:34:37;;;;;;;2.80;1.98;;;5.80;71.90;;;;;;5070636;28;20048;-81
2022/01/06 09:37:03;;;;;;;5.43;2.55;;;5.80;71.50;;;;;;5056030;28;20105;-82
2022/01/06 09:39:30;;;;;;;3.78;1.98;;;5.70;71.90;;;;;;5054891;28;20037;-89
2022/01/06 09:41:55;;;;;;;2.80;1.60;;;5.70;72.50;;;;;;5054108;28;20090;-83
2022/01/06 09:44:22;;;;;;;2.72;2.00;;;5.80;71.40;;;;;;5037529;28;20477;-81
2022/01/06 09:46:48;;;;;;;5.13;2.00;;;5.70;71.10;;;;;;5055667;28;20071;-86
2022/01/06 09:49:14;;;;;;;3.35;2.10;;;5.70;72.00;;;;;;5038529;28;20074;-88
2022/01/06 09:51:40;;;;;;;3.88;2.15;;;5.60;70.80;;;;;;5041051;28;20055;-74
2022/01/06 09:54:07;;;;;;;6.07;2.33;;;5.50;71.20;;;;;;5056452;28;20462;-77
2022/01/06 09:56:32;;;;;;;3.78;2.40;;;5.10;70.70;;;;;;5056385;28;20358;-73
2022/01/06 09:58:58;;;;;;;3.92;2.65;;;4.80;71.90;;;;;;5056204;28;20029;-74
2022/01/06 10:01:24;;;;;;;3.97;2.75;;;4.70;72.80;;;;;;5056279;28;20021;-73
2022/01/06 10:03:50;;;;;;;5.07;2.08;;;4.50;73.40;;;;;;5056701;28;20385;-75
2022/01/06 10:06:22;;;;;;;3.28;2.13;;;4.30;73.30;;;;;;5056497;28;20021;-74
2022/01/06 10:08:52;;;;;;;4.70;2.33;;;4.20;74.20;;;;;;5056377;28;20050;-73
2022/01/06 10:11:20;;;;;;;4.22;2.00;;;4.00;75.40;;;;;;5056101;28;20441;-74
2022/01/06 10:13:55;;;;;;;4.55;2.45;;;3.90;75.80;;;;;;5056249;28;20036;-74
2022/01/06 10:16:24;;;;;;;5.93;2.85;;;3.90;75.80;;;;;;5056308;28;20126;-77
2022/01/06 10:18:54;;;;;;;6.10;2.92;;;3.90;75.90;;;;;;5056452;28;20103;-76
2022/01/06 10:21:20;;;;;;;5.63;2.97;;;3.70;76.70;;;;;;5056304;28;20108;-76
2022/01/06 10:24:17;;;;;;;5.80;3.10;;;3.70;77.30;;;;;;5038099;28;20061;-77
2022/01/06 10:27:05;;;;;;;6.25;3.30;;;3.70;77.40;;;;;;5037799;28;20033;-76
2022/01/06 10:29:33;;;;;;;6.97;3.08;;;3.60;77.70;;;;;;5055966;28;20434;-73
2022/01/06 10:32:05;;;;;;;4.78;2.78;;;3.50;78.10;;;;;;5056235;28;20040;-78
2022/01/06 10:34:32;;;;;;;2.58;2.15;;;3.60;77.80;;;;;;5059147;28;20043;-75
2022/01/06 10:36:59;;;;;;;2.88;2.22;;;3.50;78.40;;;;;;5075916;28;20396;-73
2022/01/06 10:39:25;;;;;;;4.43;2.58;;;3.30;79.40;;;;;;5075748;28;20115;-76
2022/01/06 10:41:51;;;;;;;3.55;2.13;;;3.40;79.40;;;;;;5075875;28;20445;-74
2022/01/06 10:44:17;;;;;;;4.70;2.58;;;3.50;78.50;;;;;;5075848;28;20118;-74
2022/01/06 10:46:44;;;;;;;5.13;2.83;;;3.70;78.40;;;;;;5075761;28;20020;-76
2022/01/06 10:49:16;;;;;;;6.93;3.25;;;3.80;77.60;;;;;;5075695;28;20028;-76
2022/01/06 10:51:47;;;;;;;4.10;2.38;;;3.90;77.00;;;;;;5075613;28;20059;-76
2022/01/06 10:54:23;;;;;;;3.70;2.35;;;3.90;77.00;;;;;;5075764;28;20485;-76
2022/01/06 10:57:02;;;;;;;;;;;4.00;76.70;;;;;;5075785;28;20046;-76
2022/01/06 10:59:33;;;;;;;5.10;2.60;;;3.90;77.60;;;;;;5075371;28;19912;-75
2022/01/06 11:01:59;;;;;;;3.53;2.22;;;3.70;77.40;;;;;;5074804;28;20028;-74
2022/01/06 11:04:25;;;;;;;4.53;2.47;;;3.50;79.20;;;;;;5075446;28;20027;-76
2022/01/06 11:06:51;;;;;;;4.70;2.05;;;3.40;79.00;;;;;;5075467;28;20025;-76
2022/01/06 11:09:17;;;;;;;5.57;2.70;;;3.30;79.70;;;;;;5075456;28;20023;-75
2022/01/06 11:12:26;;;;;;;6.78;3.10;;;3.10;79.80;;;;;;5075301;28;20028;-75
2022/01/06 11:14:30;;;;;;;4.63;2.22;;;3.00;80.90;;;;;;5075122;28;20025;-76
2022/01/06 11:16:56;;;;;;;6.60;2.78;;;3.10;80.60;;;;;;5075082;28;20111;-77
2022/01/06 11:19:23;;;;;;;3.97;2.83;;;3.20;80.10;;;;;;5075005;28;20602;-76
2022/01/06 11:21:50;;;;;;;4.50;2.30;;;3.30;79.60;;;;;;5075212;28;20020;-76
2022/01/06 11:24:27;;;;;;;5.97;2.92;;;3.20;79.80;;;;;;5056996;28;20029;-75
2022/01/06 11:26:57;;;;;;;3.72;2.35;;;3.30;79.70;;;;;;5074933;28;20503;-77
2022/01/06 11:29:34;;;;;;;4.32;1.98;;;3.40;79.40;;;;;;5074799;28;20035;-76
2022/01/06 11:32:02;;;;;;;3.92;2.38;;;3.50;79.10;;;;;;5074919;28;20017;-76
2022/01/06 11:34:35;;;;;;;3.78;2.53;;;3.50;78.10;;;;;;5074575;28;20052;-77
2022/01/06 11:37:09;;;;;;;6.25;3.60;;;3.40;78.20;;;;;;5074711;28;20377;-77
2022/01/06 11:39:35;;;;;;;7.05;3.92;;;3.50;78.90;;;;;;5074558;28;20512;-77
2022/01/06 11:42:11;;;;;;;6.32;3.50;;;3.50;78.50;;;;;;5056727;28;20028;-76
2022/01/06 11:44:51;;;;;;;4.97;2.15;;;3.50;78.00;;;;;;5074635;28;20032;-77
2022/01/06 11:47:28;;;;;;;3.42;2.03;;;3.60;77.80;;;;;;5074715;28;20096;-75
2022/01/06 11:50:12;;;;;;;7.05;2.90;;;3.50;76.30;;;;;;5074727;28;20080;-75
2022/01/06 11:52:54;;;;;;;4.10;3.20;;;3.70;76.30;;;;;;5074531;28;20028;-76
2022/01/06 11:55:22;;;;;;;4.88;2.50;;;3.80;75.50;;;;;;5056365;28;20230;-77
2022/01/06 11:57:47;;;;;;;3.95;2.13;;;3.90;74.90;;;;;;5074259;28;20020;-76
2022/01/06 12:00:20;;;;;;;5.30;2.58;;;3.80;74.40;;;;;;5074315;28;20036;-75
2022/01/06 12:03:06;;;;;;;5.68;2.00;;;4.00;74.10;;;;;;5074417;28;20031;-76
2022/01/06 12:05:52;;;;;;;4.05;2.80;;;4.10;73.60;;;;;;5073998;28;20020;-76
2022/01/06 12:08:39;;;;;;;;;;;4.10;73.10;;;;;;5074601;28;20084;-76
2022/01/06 12:11:04;;;;;;;3.90;2.30;;;4.10;74.30;;;;;;5073638;28;20276;-77
2022/01/06 12:13:30;;;;;;;3.67;1.95;;;4.30;74.80;;;;;;5072902;28;20029;-78
2022/01/06 12:15:58;;;;;;;3.53;2.08;;;4.40;73.20;;;;;;5074017;28;20098;-75
2022/01/06 12:18:25;;;;;;;4.50;1.60;;;4.40;72.40;;;;;;5073780;28;20389;-76
2022/01/06 12:20:53;;;;;;;4.15;2.00;;;4.30;72.10;;;;;;5073943;28;20299;-77
2022/01/06 12:23:19;;;;;;;3.20;2.17;;;4.40;71.60;;;;;;5089406;28;20481;-76
2022/01/06 12:26:07;;;;;;;5.63;2.17;;;4.30;72.50;;;;;;5073859;28;20024;-77
2022/01/06 12:28:34;;;;;;;7.70;2.55;;;4.40;73.10;;;;;;5073644;28;20027;-76
2022/01/06 12:31:02;;;;;;;6.75;1.70;;;4.10;73.80;;;;;;5073640;28;20020;-77
2022/01/06 12:33:31;;;;;;;6.50;2.05;;;4.10;73.50;;;;;;5073650;28;20027;-76
2022/01/06 12:36:06;;;;;;;;;;;4.20;74.80;;;;;;5090832;28;20389;-73
2022/01/06 12:38:32;;;;;;;;;;;4.60;74.60;;;;;;5090984;28;20349;-74
2022/01/06 12:40:59;;;;;;;5.95;1.58;;;5.40;74.20;;;;;;5090421;28;20361;-76
2022/01/06 12:43:31;;;;;;;7.25;2.25;;;5.90;72.00;;;;;;5090528;28;20020;-77
2022/01/06 12:46:16;;;;;;;8.77;2.53;;;5.90;69.30;;;;;;5090265;28;20067;-75
2022/01/06 12:48:54;;;;;;;8.23;1.75;;;5.50;69.90;;;;;;5090277;28;20115;-77
2022/01/06 12:51:24;;;;;;;7.60;1.83;;;5.10;71.90;;;;;;5105748;28;20032;-78
2022/01/06 12:53:58;;;;;;;7.70;2.67;;;4.60;73.20;;;;;;5090151;28;20028;-76
2022/01/06 12:56:29;;;;;;;9.70;2.97;;;4.30;74.90;;;;;;5072004;28;20438;-76
2022/01/06 12:58:56;;;;;;;9.07;1.90;;;3.90;76.60;;;;;;5090145;28;20035;-77
2022/01/06 13:01:22;;;;;;;8.00;1.92;;;3.70;78.40;;;;;;5089966;28;20042;-78
2022/01/06 13:03:54;;;;;;;6.07;1.58;;;3.60;78.00;;;;;;5089874;28;20028;-75